Historyczne dane pomiarowe

Dodano dane terminowe – wersja testowa.

Dane z okresu 1951-2019

Wersja bazy: 1.34 [2019-03-16, lista zmian], aktualizacja planowana na 2019-04-15

Dane meteo z obszaru Polski uzyskane na podstawie danych udostępnionych przez Instytut Meteorologii i Gospodarki Wodnej – Państwowy Instytut Badawczy.

 

Wybierz Datę:    

       

TemperaturaWilgotnośćWiatrCiśnienieOpadyŚniegCzas trwania zjawisk
 Stacja t tx tn tng RH VA  wxwx mslp ppp RRR   cm mm wxwxwxwxwxwxwx
1999-08-14 15.6 20.6 11.6 4.4-- 3.7 1.0---- 0.2------------
1999-08-13 14.8 19.5 9.5 5.9-- 5.7 0.7---- 0.0------------
1999-08-12 16.6 19.7 13.4 13.3-- 7.3 0.7---- 0.0------------
1999-08-11 19.2 23.8 15.9 12.3-- 5.0 1.3---- 1.5------------
1999-08-10 20.2 27.4 15.9 12.3-- 7.7 0.0---- 6.5------------
1999-08-09 21.2 29.7 14.9 11.8-- 2.0 0.0---- 3.6------------
1999-08-08 21.0 28.7 14.9 9.7-- 3.0 0.7---- 0.0------------
1999-08-07 20.7 25.7 15.9 10.5-- 3.3 0.7---- 0.1------------
1999-08-06 20.8 26.1 16.4 10.8-- 5.0 0.0---- 8.6------------
1999-08-05 18.4 26.3 10.4 5.9-- 4.3 0.7---- 6.5------------
1999-08-04 17.7 24.7 10.4 5.9-- 1.7 0.3---- 0.0------------
1999-08-03 16.7 22.6 11.0 6.3-- 3.3 0.7---- 0.0------------
1999-08-02 17.1 22.1 11.5 7.5-- 5.3 0.3---- 0.1------------
1999-08-01 16.8 24.9 11.3 7.0-- 4.7 1.3---- 0.7------------
1999-07-31 17.0 22.4 9.5 8.8-- 3.0 1.0---- 0.0------------
1999-07-30 18.2 24.2 11.1 7.0-- 3.3 0.7---- 0.0------------
1999-07-29 17.9 23.8 13.4 11.4-- 2.3 1.7---- 0.0------------
1999-07-28 19.9 24.3 14.9 13.9-- 1.7 1.0---- 0.0------------
1999-07-27 19.1 26.1 13.6 12.3-- 8.0 0.7---- 0.0------------
1999-07-26 19.4 26.1 8.7 8.5-- 3.3 1.0---- 0.0------------
1999-07-25 16.8 24.1 11.6 9.3-- 2.0 0.7---- 0.0------------
1999-07-24 16.4 19.7 11.5 10.3-- 5.0 1.0---- 0.0------------
1999-07-23 16.3 20.2 12.8 12.3-- 8.0 0.0---- 5.7------------
1999-07-22 19.8 23.3 16.9 13.3-- 5.7 1.0---- 7.6------------
1999-07-21 21.2 27.7 16.5 13.3-- 4.0 0.7---- 0.9------------
1999-07-20 20.3 28.3 9.0 9.3-- 1.3 0.7---- 0.0------------
1999-07-19 19.3 27.2 10.9 8.0-- 1.0 0.0---- 0.0------------
1999-07-18 17.2 25.3 10.5 8.0-- 2.0 0.7---- 0.0------------
1999-07-17 17.3 23.1 11.0 7.9-- 3.3 1.0---- 0.0------------
1999-07-16 16.8 20.8 12.4 9.9-- 1.7 0.7---- 0.0------------
1999-07-15 16.5 19.4 13.8 11.9-- 7.7 0.7---- 0.2------------
1999-07-14 20.1 26.4 16.4 16.0-- 4.7 1.0---- 2.8------------
1999-07-13 20.1 25.3 14.9 13.3-- 6.7 0.0---- 8.8------------
1999-07-12 20.1 26.7 14.9 12.8-- 3.7 0.3---- 0.5------------
1999-07-11 18.6 23.0 16.0 13.4-- 7.3 1.0---- 5.4------------
1999-07-10 19.8 22.4 17.0 16.2-- 6.7 1.3---- 0.0------------
1999-07-09 17.0 18.9 15.3 15.2-- 8.0 0.7---- 0.0------------
1999-07-08 17.4 19.5 16.3 16.5-- 8.0 0.3---- 2.2------------
1999-07-07 20.9 27.9 17.3 17.6-- 7.7 1.7---- 22.0------------
1999-07-06 25.5 31.3 17.9 14.2-- 2.3 0.7---- 0.0------------
1999-07-05 25.3 31.2 17.4 14.2-- 0.7 1.3---- 0.0------------
1999-07-04 25.1 31.4 15.9 10.7-- 0.3 0.7---- 0.0------------
1999-07-03 20.4 29.3 13.4 10.4-- 3.3 1.7---- 0.0------------
1999-07-02 19.8 25.1 14.4 11.9-- 6.0 0.3---- 0.0------------
1999-07-01 19.8 25.2 14.4 13.3-- 6.0 0.7---- 0.0------------
1999-06-30 20.3 26.0 13.9 11.9 73.8- 5.7 1.0---- 0.0------------
1999-06-29 19.5 24.1 14.4 12.8 68.8- 4.3 0.0---- 0.0------------
1999-06-28 19.1 26.7 13.4 11.4 86.0- 6.0 0.7---- 26.2------------
1999-06-27 20.9 26.4 12.5 7.5 71.8- 4.0 0.0---- 0.0------------
1999-06-26 17.5 21.6 12.7 9.0 76.8- 2.3 0.7---- 0.0------------
1999-06-25 14.2 21.1 7.0 4.4 79.5- 4.7 0.7---- 0.0------------
1999-06-24 11.9 16.7 7.0 4.4 84.8- 4.7 0.3---- 0.0------------
1999-06-23 10.2 12.1 7.7 8.0 96.0- 8.0 2.0---- 1.0------------
1999-06-22 9.6 13.5 8.0 8.5 99.5- 8.0 1.0---- 30.1------------
1999-06-21 16.9 22.6 12.9 10.4 82.5- 8.0 2.0---- 42.4------------
1999-06-20 17.5 21.4 14.4 11.4 86.8- 7.3 1.0---- 0.0------------
1999-06-19 15.9 18.7 12.4 12.8 93.0- 8.0 1.0---- 0.0------------
1999-06-18 16.8 17.7 15.9 15.7 97.3- 8.0 0.3---- 8.7------------
1999-06-17 17.8 21.6 15.7 10.7 92.8- 8.0 0.0---- 25.1------------
1999-06-16 16.7 19.9 14.7 10.7 97.3- 8.0 0.0---- 0.0------------
323.2 ms

 

Źródłem pochodzenia danych jest Instytut Meteorologii i Gospodarki Wodnej – Państwowy Instytut Badawczy. Dane Instytutu Meteorologii i Gospodarki Wodnej – Państwowego Instytutu Badawczego zostały przetworzone.

Dane źródłowe można odnaleźć na stronie https://dane.imgw.pl